createdAt,value
2019-06-07T00:04:47.609Z,6.53
2019-06-07T00:09:52.058Z,6.23
2019-06-07T00:14:56.578Z,6.97
2019-06-07T00:20:00.896Z,6.83
2019-06-07T00:25:12.166Z,7.00
2019-06-07T00:30:42.421Z,7.53
2019-06-07T00:35:22.514Z,7.47
2019-06-07T00:40:31.743Z,6.47
2019-06-07T00:45:32.960Z,6.80
2019-06-07T00:50:37.496Z,7.17
2019-06-07T00:55:41.450Z,6.77
2019-06-07T01:00:45.659Z,7.33
2019-06-07T01:05:49.613Z,8.43
2019-06-07T01:10:54.429Z,7.53
2019-06-07T01:15:59.734Z,6.77
2019-06-07T01:21:03.987Z,6.97
2019-06-07T01:26:08.427Z,6.57
2019-06-07T01:31:12.790Z,7.17
2019-06-07T01:36:18.242Z,7.17
2019-06-07T01:41:25.342Z,7.63
2019-06-07T01:46:28.709Z,7.37
2019-06-07T01:51:33.362Z,8.40
2019-06-07T01:56:38.990Z,7.85
2019-06-07T02:01:43.257Z,7.83
2019-06-07T02:06:47.208Z,7.60
2019-06-07T02:11:51.074Z,7.33
2019-06-07T02:16:55.274Z,7.70
2019-06-07T02:21:59.561Z,8.37
2019-06-07T02:27:03.595Z,7.90
2019-06-07T02:32:07.709Z,8.07
2019-06-07T02:37:11.899Z,8.03
2019-06-07T02:42:16.171Z,9.70
2019-06-07T02:47:20.379Z,7.77
2019-06-07T02:52:28.732Z,8.10
2019-06-07T02:57:36.832Z,8.37
2019-06-07T03:02:41.230Z,8.40
2019-06-07T03:07:45.192Z,9.50
2019-06-07T03:12:50.948Z,10.00
2019-06-07T03:18:11.315Z,9.50
2019-06-07T03:23:16.257Z,9.60
2019-06-07T03:28:20.506Z,10.85
2019-06-07T03:33:24.422Z,11.23
2019-06-07T03:38:32.050Z,13.37
2019-06-07T03:43:38.652Z,12.67
2019-06-07T03:48:41.615Z,13.27
2019-06-07T03:53:46.119Z,13.57
2019-06-07T03:58:50.619Z,15.37
2019-06-07T04:03:54.981Z,16.97
2019-06-07T04:08:59.303Z,19.63
2019-06-07T04:14:03.697Z,17.67
2019-06-07T04:19:07.662Z,22.55
2019-06-07T04:24:12.512Z,24.47
2019-06-07T04:29:41.369Z,26.73
2019-06-07T04:34:23.140Z,24.37
2019-06-07T04:39:31.346Z,28.80
2019-06-07T04:44:39.376Z,25.23
2019-06-07T04:49:44.646Z,27.87
2019-06-07T04:54:48.867Z,25.73
2019-06-07T05:04:58.347Z,24.33
2019-06-07T05:10:02.641Z,24.20
2019-06-07T05:15:06.688Z,21.70
2019-06-07T05:20:10.694Z,22.33
2019-06-07T05:25:15.190Z,25.70
2019-06-07T05:30:59.727Z,19.27
2019-06-07T05:35:35.681Z,20.97
2019-06-07T05:40:43.942Z,19.80
2019-06-07T05:45:47.631Z,22.17
2019-06-07T05:50:57.030Z,23.13
2019-06-07T05:55:58.027Z,21.77
2019-06-07T06:01:41.448Z,22.10
2019-06-07T06:06:09.119Z,19.47
2019-06-07T06:11:13.377Z,17.13
2019-06-07T06:16:17.929Z,17.20
2019-06-07T06:21:22.376Z,15.07
2019-06-07T06:26:26.366Z,14.40
2019-06-07T06:31:30.250Z,12.50
2019-06-07T06:36:34.479Z,12.57
2019-06-07T06:41:49.439Z,12.33
2019-06-07T06:46:52.121Z,10.50
2019-06-07T06:51:53.582Z,10.13
2019-06-07T06:57:18.596Z,8.70
2019-06-07T07:02:04.321Z,9.53
2019-06-07T07:07:08.552Z,7.37
2019-06-07T07:12:14.886Z,6.73
2019-06-07T07:17:18.734Z,6.60
2019-06-07T07:22:23.025Z,5.90
2019-06-07T07:27:27.251Z,6.17
2019-06-07T07:32:31.118Z,7.47
2019-06-07T07:37:35.562Z,6.63
2019-06-07T07:42:40.147Z,6.50
2019-06-07T07:48:03.514Z,5.97
2019-06-07T07:52:56.025Z,5.43
2019-06-07T07:58:01.107Z,6.03
2019-06-07T08:03:04.586Z,5.27
2019-06-07T08:08:09.110Z,5.27
2019-06-07T08:13:24.532Z,5.53
2019-06-07T08:18:19.040Z,6.07
2019-06-07T08:23:23.279Z,4.60
2019-06-07T08:28:27.526Z,3.10
2019-06-07T08:33:32.559Z,2.93
2019-06-07T08:38:47.540Z,4.80
2019-06-07T08:43:42.409Z,3.60
2019-06-07T08:48:46.582Z,3.70
2019-06-07T08:54:09.266Z,3.30
2019-06-07T08:59:00.614Z,2.60
2019-06-07T09:04:07.752Z,5.40
2019-06-07T09:09:08.563Z,4.27
2019-06-07T09:14:12.767Z,3.63
2019-06-07T09:19:16.992Z,4.80
2019-06-07T09:24:21.229Z,3.07
2019-06-07T09:29:27.722Z,2.60
2019-06-07T09:34:31.757Z,3.00
2019-06-07T09:39:36.566Z,4.50
2019-06-07T09:44:40.863Z,3.30
2019-06-07T09:49:45.471Z,3.17
2019-06-07T09:55:19.525Z,4.67
2019-06-07T09:59:57.558Z,3.07
2019-06-07T10:05:06.986Z,3.17
2019-06-07T10:15:16.986Z,3.37
2019-06-07T10:20:21.532Z,3.40
2019-06-07T10:25:25.896Z,4.53
2019-06-07T10:30:30.190Z,2.90
2019-06-07T10:35:34.753Z,3.00
2019-06-07T10:40:39.294Z,3.30
2019-06-07T10:45:43.461Z,4.10
2019-06-07T10:50:47.650Z,2.73
2019-06-07T10:55:52.271Z,3.13
2019-06-07T11:00:56.810Z,2.17
2019-06-07T11:06:00.771Z,3.77
2019-06-07T11:11:06.011Z,3.23
2019-06-07T11:16:11.203Z,6.30
2019-06-07T11:21:15.617Z,2.87
2019-06-07T11:26:20.704Z,6.80
2019-06-07T11:31:25.155Z,2.80
2019-06-07T11:36:29.427Z,2.30
2019-06-07T11:41:33.640Z,4.13
2019-06-07T11:46:37.607Z,2.00
2019-06-07T11:51:41.818Z,4.40
2019-06-07T11:56:46.371Z,1.97
2019-06-07T12:01:50.938Z,2.33
2019-06-07T12:06:55.219Z,2.30
2019-06-07T12:11:59.509Z,3.50
2019-06-07T12:17:03.476Z,4.17
2019-06-07T12:22:07.671Z,2.60
2019-06-07T12:27:14.761Z,5.23
2019-06-07T12:32:19.603Z,3.40
2019-06-07T12:37:42.074Z,3.93
2019-06-07T12:42:29.909Z,2.93
2019-06-07T12:47:34.072Z,3.17
2019-06-07T12:52:37.959Z,3.30
2019-06-07T12:57:43.445Z,3.53
2019-06-07T13:02:47.714Z,2.80
2019-06-07T13:07:51.583Z,4.23
2019-06-07T13:12:55.796Z,2.87
2019-06-07T13:18:01.323Z,4.73
2019-06-07T13:23:06.159Z,2.20
2019-06-07T13:28:12.011Z,2.47
2019-06-07T13:33:16.840Z,4.13
2019-06-07T13:38:29.096Z,3.07
2019-06-07T13:43:33.040Z,3.60
2019-06-07T13:48:37.173Z,4.07
2019-06-07T13:53:42.363Z,2.63
2019-06-07T13:58:46.327Z,2.40
2019-06-07T14:03:50.523Z,9.80
2019-06-07T14:08:54.818Z,2.53
2019-06-07T14:13:59.221Z,2.57
2019-06-07T14:19:04.142Z,2.60
2019-06-07T14:24:08.448Z,2.77
2019-06-07T14:29:12.834Z,4.20
2019-06-07T14:34:17.444Z,2.77
2019-06-07T14:39:22.963Z,2.23
2019-06-07T14:44:27.777Z,3.87
2019-06-07T14:49:32.902Z,2.80
2019-06-07T14:54:39.286Z,2.80
2019-06-07T14:59:43.848Z,2.57
2019-06-07T15:04:48.373Z,2.80
2019-06-07T15:09:52.336Z,2.53
2019-06-07T15:14:57.531Z,5.07
2019-06-07T15:20:01.973Z,2.43
2019-06-07T15:25:06.875Z,2.60
2019-06-07T15:30:11.702Z,3.50
2019-06-07T15:35:16.258Z,3.33
2019-06-07T15:40:20.663Z,3.20
2019-06-07T15:45:24.974Z,2.40
2019-06-07T15:50:30.496Z,2.27
2019-06-07T15:55:41.008Z,2.37
2019-06-07T16:00:42.580Z,2.60
2019-06-07T16:05:46.947Z,4.60
2019-06-07T16:10:50.984Z,4.93
2019-06-07T16:15:55.284Z,4.93
2019-06-07T16:20:59.416Z,13.03
2019-06-07T16:26:03.737Z,6.00
2019-06-07T16:31:07.807Z,4.40
2019-06-07T16:36:12.036Z,2.23
2019-06-07T16:41:16.023Z,1.77
2019-06-07T16:46:19.995Z,1.43
2019-06-07T16:51:24.303Z,3.17
2019-06-07T16:56:28.362Z,0.87
2019-06-07T17:01:32.344Z,3.03
2019-06-07T17:06:37.612Z,2.17
2019-06-07T17:11:42.359Z,0.70
2019-06-07T17:16:48.725Z,2.40
2019-06-07T17:21:52.670Z,1.17
2019-06-07T17:26:57.558Z,0.87
2019-06-07T17:32:01.758Z,0.80
2019-06-07T17:37:06.308Z,1.90
2019-06-07T17:42:10.603Z,1.20
2019-06-07T17:47:14.977Z,0.50
2019-06-07T17:52:19.191Z,1.13
2019-06-07T17:57:23.046Z,0.60
2019-06-07T18:02:27.567Z,2.13
2019-06-07T18:07:32.231Z,1.50
2019-06-07T18:12:36.189Z,0.83
2019-06-07T18:17:40.385Z,1.13
2019-06-07T18:22:45.045Z,0.90
2019-06-07T18:27:50.592Z,1.40
2019-06-07T18:32:55.349Z,0.97
2019-06-07T18:37:59.697Z,0.83
2019-06-07T18:43:03.957Z,1.53
2019-06-07T18:48:07.888Z,2.17
2019-06-07T18:53:11.785Z,0.97
2019-06-07T18:58:16.242Z,0.87
2019-06-07T19:03:20.604Z,0.90
2019-06-07T19:08:25.132Z,1.47
2019-06-07T19:13:29.414Z,0.97
2019-06-07T19:18:33.716Z,0.70
2019-06-07T19:23:38.986Z,0.70
2019-06-07T19:28:43.872Z,0.80
2019-06-07T19:33:50.934Z,2.60
2019-06-07T19:38:55.826Z,2.03
2019-06-07T19:44:00.379Z,1.73
2019-06-07T19:49:04.580Z,1.20
2019-06-07T19:54:09.030Z,1.60
2019-06-07T19:59:13.747Z,0.80
2019-06-07T20:04:17.701Z,0.87
2019-06-07T20:09:23.534Z,3.63
2019-06-07T20:14:28.073Z,1.67
2019-06-07T20:19:32.354Z,1.13
2019-06-07T20:24:38.131Z,1.87
2019-06-07T20:29:42.216Z,2.37
2019-06-07T20:34:46.677Z,1.33
2019-06-07T20:39:51.137Z,3.10
2019-06-07T20:44:55.479Z,0.97
2019-06-07T20:50:00.061Z,1.73
2019-06-07T20:55:06.915Z,2.03
2019-06-07T21:00:17.366Z,2.70
2019-06-07T21:05:17.025Z,1.20
2019-06-07T21:10:21.869Z,0.90
2019-06-07T21:15:26.057Z,1.87
2019-06-07T21:20:30.585Z,1.77
2019-06-07T21:25:35.113Z,3.93
2019-06-07T21:30:39.099Z,2.53
2019-06-07T21:35:42.960Z,1.30
2019-06-07T21:40:48.726Z,1.20
2019-06-07T21:46:04.810Z,1.97
2019-06-07T21:50:58.772Z,3.23
2019-06-07T21:56:04.775Z,2.80
2019-06-07T22:01:12.078Z,3.37
2019-06-07T22:06:22.242Z,1.60
2019-06-07T22:11:26.545Z,3.30
2019-06-07T22:16:30.828Z,3.23
2019-06-07T22:21:35.172Z,1.37
2019-06-07T22:26:39.730Z,2.40
2019-06-07T22:31:43.757Z,1.80
2019-06-07T22:36:48.209Z,2.03
2019-06-07T22:41:54.132Z,2.43
2019-06-07T22:46:58.736Z,2.20
2019-06-07T22:52:08.894Z,5.10
2019-06-07T22:57:16.499Z,1.33
2019-06-07T23:02:20.966Z,2.20
2019-06-07T23:07:25.240Z,3.30
2019-06-07T23:12:29.527Z,3.33
2019-06-07T23:17:33.480Z,1.40
2019-06-07T23:22:37.739Z,2.10
2019-06-07T23:27:41.707Z,2.60
2019-06-07T23:32:45.817Z,2.57
2019-06-07T23:37:50.722Z,3.53
2019-06-07T23:42:55.159Z,2.20
2019-06-07T23:47:59.448Z,2.73
2019-06-07T23:53:03.727Z,1.50
2019-06-07T23:58:07.916Z,3.57
